| Date | Time | Temp. (oF) | Dew Point (oF) | Rel. Hum. (%) | Press. (in.) | Wind Dir. | Wind Speed (mph) | Hourly Rainfall (in.) |
|
|---|---|---|---|---|---|---|---|---|---|
| 1 | 12/16 | 00:00 | 14 | 13 | 98 | 29.95 | SW | 0 | 0.00 |
| 2 | 12/15 | 23:00 | 15 | 14 | 100 | 29.95 | SW | 0 | 0.00 |
| 3 | 12/15 | 22:00 | 17 | 16 | 98 | 29.94 | SW | 1 | 0.00 |
| 4 | 12/15 | 21:00 | 20 | 19 | 96 | 29.94 | SW | 2 | 0.00 |
| 5 | 12/15 | 20:00 | 20 | 19 | 96 | 29.94 | SW | 2 | 0.00 |
| 6 | 12/15 | 19:00 | 22 | 21 | 96 | 29.92 | SW | 2 | 0.00 |
| 7 | 12/15 | 18:00 | 21 | 20 | 97 | 29.91 | SE | 1 | 0.00 |
| 8 | 12/15 | 17:00 | 22 | 20 | 95 | 29.90 | SE | 1 | 0.00 |
| 9 | 12/15 | 16:00 | 22 | 20 | 94 | 29.91 | SSW | 2 | 0.04 |
| 10 | 12/15 | 15:00 | 22 | 20 | 92 | 29.92 | W | 1 | 0.00 |
| 11 | 12/15 | 14:00 | 23 | 18 | 81 | 29.92 | S | 3 | 0.00 |
| 12 | 12/15 | 13:00 | 24 | 16 | 73 | 29.95 | SSW | 1 | 0.00 |
| 13 | 12/15 | 12:00 | 24 | 15 | 71 | 29.98 | SSE | 4 | 0.00 |
| 14 | 12/15 | 11:00 | 24 | 12 | 60 | 30.03 | S | 4 | 0.00 |
| 15 | 12/15 | 10:00 | 23 | 11 | 62 | 30.06 | SSE | 2 | 0.00 |
| 16 | 12/15 | 09:00 | 22 | 13 | 69 | 30.06 | S | 2 | 0.00 |
| 17 | 12/15 | 08:00 | 20 | 14 | 78 | 30.08 | WSW | 1 | 0.00 |
| 18 | 12/15 | 07:00 | 18 | 12 | 79 | 30.08 | WSW | 1 | 0.00 |
| 19 | 12/15 | 06:00 | 17 | 13 | 86 | 30.08 | WSW | 1 | 0.00 |
| 20 | 12/15 | 05:00 | 16 | 11 | 83 | 30.09 | WSW | 1 | 0.00 |
| 21 | 12/15 | 04:00 | 17 | 11 | 78 | 30.09 | WSW | 1 | 0.00 |
| 22 | 12/15 | 03:00 | 18 | 12 | 77 | 30.09 | N | 1 | 0.00 |
| 23 | 12/15 | 02:00 | 19 | 10 | 68 | 30.09 | N | 1 | 0.00 |
| 24 | 12/15 | 01:00 | 20 | 9 | 64 | 30.09 | N | 2 | 0.00 |